createdAt,value
2022-12-03T00:02:11.452Z,66.37
2022-12-03T00:05:13.603Z,72.10
2022-12-03T00:08:16.085Z,69.47
2022-12-03T00:11:17.962Z,74.07
2022-12-03T00:14:20.023Z,72.03
2022-12-03T00:17:21.876Z,76.37
2022-12-03T00:20:24.975Z,77.60
2022-12-03T00:23:26.777Z,80.80
2022-12-03T00:26:28.912Z,88.40
2022-12-03T00:29:30.724Z,82.67
2022-12-03T00:32:32.845Z,76.50
2022-12-03T00:35:34.669Z,81.77
2022-12-03T00:38:36.862Z,80.00
2022-12-03T00:41:38.699Z,75.00
2022-12-03T00:44:42.986Z,78.23
2022-12-03T00:47:45.125Z,73.53
2022-12-03T00:50:47.207Z,74.73
2022-12-03T00:53:49.002Z,71.60
2022-12-03T00:56:51.067Z,75.67
2022-12-03T00:59:52.902Z,84.47
2022-12-03T01:02:55.005Z,76.40
2022-12-03T01:05:56.926Z,73.37
2022-12-03T01:08:59.044Z,73.77
2022-12-03T01:12:00.893Z,68.40
2022-12-03T01:15:03.351Z,71.73
2022-12-03T01:18:05.176Z,67.13
2022-12-03T01:21:07.254Z,69.77
2022-12-03T01:24:10.213Z,76.60
2022-12-03T01:27:12.401Z,68.60
2022-12-03T01:30:14.544Z,62.47
2022-12-03T01:33:16.656Z,78.77
2022-12-03T01:36:18.522Z,72.33
2022-12-03T01:39:20.652Z,70.23
2022-12-03T01:42:28.953Z,76.40
2022-12-03T01:45:31.101Z,70.77
2022-12-03T01:48:37.760Z,68.30
2022-12-03T01:51:39.828Z,72.80
2022-12-03T01:54:46.842Z,75.07
2022-12-03T01:57:52.594Z,74.40
2022-12-03T02:00:54.841Z,66.77
2022-12-03T02:03:57.866Z,69.43
2022-12-03T02:07:20.954Z,67.40
2022-12-03T02:10:28.022Z,69.73
2022-12-03T02:13:30.033Z,68.40
2022-12-03T02:16:34.196Z,64.07
2022-12-03T02:19:38.877Z,73.57
2022-12-03T02:23:04.558Z,70.30
2022-12-03T02:26:06.549Z,68.33
2022-12-03T02:29:08.712Z,70.50
2022-12-03T02:32:10.645Z,64.27
2022-12-03T02:35:16.170Z,69.60
2022-12-03T02:38:25.049Z,65.23
2022-12-03T02:41:47.629Z,66.63
2022-12-03T02:44:49.478Z,64.67
2022-12-03T02:47:54.576Z,63.53
2022-12-03T02:51:00.224Z,65.20
2022-12-03T02:54:03.163Z,64.53
2022-12-03T02:57:05.346Z,61.70
2022-12-03T03:00:10.364Z,62.73
2022-12-03T03:03:12.677Z,62.57
2022-12-03T03:06:15.846Z,56.77
2022-12-03T03:09:18.504Z,58.73
2022-12-03T03:12:20.651Z,68.23
2022-12-03T03:15:23.692Z,59.87
2022-12-03T03:18:25.826Z,69.30
2022-12-03T03:21:28.075Z,62.67
2022-12-03T03:24:30.243Z,61.57
2022-12-03T03:27:33.082Z,66.60
2022-12-03T03:30:38.782Z,62.07
2022-12-03T03:33:43.159Z,71.63
2022-12-03T03:36:47.865Z,66.47
2022-12-03T03:39:49.898Z,71.53
2022-12-03T03:42:52.313Z,77.30
2022-12-03T03:45:55.041Z,78.70
2022-12-03T03:48:57.152Z,77.27
2022-12-03T03:51:59.217Z,64.43
2022-12-03T03:55:01.838Z,70.67
2022-12-03T03:58:03.892Z,75.00
2022-12-03T04:01:06.370Z,61.83
2022-12-03T04:04:18.472Z,68.13
2022-12-03T04:07:20.681Z,67.60
2022-12-03T04:10:41.449Z,67.70
2022-12-03T04:13:43.569Z,64.30
2022-12-03T04:16:45.408Z,67.03
2022-12-03T04:19:47.517Z,64.57
2022-12-03T04:22:49.359Z,62.33
2022-12-03T04:26:10.259Z,62.77
2022-12-03T04:29:12.329Z,64.50
2022-12-03T04:32:33.005Z,67.00
2022-12-03T04:35:43.646Z,62.73
2022-12-03T04:38:45.824Z,55.40
2022-12-03T04:41:47.626Z,60.60
2022-12-03T04:44:53.045Z,59.40
2022-12-03T04:47:54.982Z,52.90
2022-12-03T04:50:57.078Z,53.90
2022-12-03T04:53:58.901Z,54.47
2022-12-03T04:57:01.418Z,55.37
2022-12-03T05:00:05.014Z,58.17
2022-12-03T05:03:07.231Z,56.90
2022-12-03T05:06:09.118Z,60.57
2022-12-03T05:09:12.085Z,58.37
2022-12-03T05:12:13.976Z,62.67
2022-12-03T05:15:16.107Z,62.07
2022-12-03T05:18:17.889Z,60.70
2022-12-03T05:21:19.986Z,55.90
2022-12-03T05:24:21.754Z,47.80
2022-12-03T05:27:24.400Z,52.87
2022-12-03T05:30:29.371Z,54.07
2022-12-03T05:33:35.579Z,58.70
2022-12-03T05:36:39.093Z,54.73
2022-12-03T05:39:41.204Z,53.40
2022-12-03T05:42:55.153Z,51.67
2022-12-03T05:45:57.299Z,52.27
2022-12-03T05:48:59.194Z,54.40
2022-12-03T05:52:01.261Z,62.13
2022-12-03T05:55:03.353Z,54.30
2022-12-03T05:58:05.654Z,57.57
2022-12-03T06:01:07.580Z,57.20
2022-12-03T06:04:09.755Z,52.67
2022-12-03T06:07:14.142Z,51.67
2022-12-03T06:10:22.376Z,49.33
2022-12-03T06:13:24.168Z,56.53
2022-12-03T06:16:26.343Z,54.33
2022-12-03T06:19:28.209Z,50.07
2022-12-03T06:22:30.291Z,51.57
2022-12-03T06:25:32.221Z,54.97
2022-12-03T06:28:34.305Z,48.57
2022-12-03T06:31:36.340Z,59.80
2022-12-03T06:34:38.750Z,60.23
2022-12-03T06:37:40.580Z,51.13
2022-12-03T06:40:42.738Z,51.53
2022-12-03T06:43:44.542Z,56.47
2022-12-03T06:46:46.627Z,50.63
2022-12-03T06:49:48.581Z,54.13
2022-12-03T06:52:50.656Z,52.50
2022-12-03T06:55:52.486Z,59.23
2022-12-03T06:58:54.712Z,54.10
2022-12-03T07:01:56.590Z,48.93
2022-12-03T07:04:58.943Z,51.80
2022-12-03T07:08:01.290Z,56.43
2022-12-03T07:11:03.476Z,49.63
2022-12-03T07:14:07.749Z,49.83
2022-12-03T07:17:09.870Z,51.30
2022-12-03T07:20:12.269Z,52.07
2022-12-03T07:23:14.335Z,53.33
2022-12-03T07:26:16.247Z,51.40
2022-12-03T07:29:18.342Z,47.83
2022-12-03T07:32:20.177Z,49.53
2022-12-03T07:35:22.314Z,50.30
2022-12-03T07:38:24.699Z,50.97
2022-12-03T07:41:26.757Z,50.97
2022-12-03T07:44:31.231Z,46.87
2022-12-03T07:47:33.483Z,47.53
2022-12-03T07:50:35.429Z,52.33
2022-12-03T07:53:37.783Z,54.37
2022-12-03T07:56:39.688Z,48.10
2022-12-03T07:59:41.776Z,42.00
2022-12-03T08:02:43.690Z,52.10
2022-12-03T08:05:45.966Z,50.97
2022-12-03T08:08:47.753Z,48.17
2022-12-03T08:11:50.378Z,48.50
2022-12-03T08:14:52.766Z,49.53
2022-12-03T08:17:58.718Z,50.97
2022-12-03T08:21:00.712Z,46.90
2022-12-03T08:24:12.718Z,49.00
2022-12-03T08:27:18.414Z,49.87
2022-12-03T08:30:21.004Z,51.27
2022-12-03T08:33:33.622Z,54.23
2022-12-03T08:36:36.455Z,53.10
2022-12-03T08:39:46.136Z,54.70
2022-12-03T08:42:48.453Z,60.47
2022-12-03T08:45:57.491Z,51.10
2022-12-03T08:48:59.636Z,52.87
2022-12-03T08:52:11.123Z,53.93
2022-12-03T08:55:36.239Z,54.30
2022-12-03T08:58:43.955Z,57.00
2022-12-03T09:01:47.151Z,45.93
2022-12-03T09:04:49.120Z,53.80
2022-12-03T09:07:51.312Z,56.57
2022-12-03T09:10:53.517Z,52.03
2022-12-03T09:13:56.025Z,50.30
2022-12-03T09:16:57.876Z,52.30
2022-12-03T09:20:00.164Z,57.60
2022-12-03T09:23:02.077Z,55.17
2022-12-03T09:26:04.225Z,52.93
2022-12-03T09:29:11.707Z,56.23
2022-12-03T09:32:18.272Z,61.70
2022-12-03T09:35:20.795Z,52.40
2022-12-03T09:38:22.858Z,58.87
2022-12-03T09:41:25.154Z,62.67
2022-12-03T09:44:30.458Z,57.60
2022-12-03T09:47:32.627Z,56.80
2022-12-03T09:50:40.748Z,61.80
2022-12-03T09:53:42.637Z,54.87
2022-12-03T09:56:44.858Z,59.93
2022-12-03T09:59:46.789Z,56.13
2022-12-03T10:02:51.088Z,65.60
2022-12-03T10:05:53.836Z,56.53
2022-12-03T10:08:56.403Z,59.03
2022-12-03T10:11:59.762Z,66.80
2022-12-03T10:15:02.138Z,62.17
2022-12-03T10:18:23.746Z,64.80
2022-12-03T10:21:36.275Z,62.40
2022-12-03T10:24:38.626Z,56.63
2022-12-03T10:27:41.829Z,61.20
2022-12-03T10:30:55.460Z,58.37
2022-12-03T10:33:58.361Z,58.23
2022-12-03T10:37:21.733Z,65.03
2022-12-03T10:40:26.521Z,61.60
2022-12-03T10:43:28.611Z,62.70
2022-12-03T10:46:30.861Z,62.03
2022-12-03T10:49:33.204Z,63.97
2022-12-03T10:52:35.373Z,66.60
2022-12-03T10:55:39.885Z,74.03
2022-12-03T10:58:42.254Z,64.20
2022-12-03T11:01:45.605Z,68.17
2022-12-03T11:04:50.973Z,64.80
2022-12-03T11:07:53.361Z,73.33
2022-12-03T11:11:08.962Z,68.53
2022-12-03T11:14:33.867Z,88.77
2022-12-03T11:17:52.418Z,66.87
2022-12-03T11:21:15.125Z,91.33
2022-12-03T11:24:27.706Z,102.43
2022-12-03T11:27:33.534Z,65.37
2022-12-03T11:30:50.943Z,71.97
2022-12-03T11:34:20.442Z,74.53
2022-12-03T11:37:24.693Z,73.73
2022-12-03T11:40:28.440Z,75.60
2022-12-03T11:44:03.423Z,72.27
2022-12-03T11:47:23.065Z,73.40
2022-12-03T11:50:39.692Z,73.43
2022-12-03T11:53:54.268Z,73.27
2022-12-03T11:57:00.421Z,76.90
2022-12-03T12:00:23.968Z,72.67
2022-12-03T12:03:34.090Z,67.13
2022-12-03T12:06:47.483Z,76.53
2022-12-03T12:09:55.538Z,82.03
2022-12-03T12:12:57.649Z,79.23
2022-12-03T12:16:05.981Z,77.60
2022-12-03T12:19:27.509Z,81.10
2022-12-03T12:22:31.133Z,75.47
2022-12-03T12:25:38.493Z,71.60
2022-12-03T12:28:40.713Z,73.57
2022-12-03T12:31:47.285Z,77.50
2022-12-03T12:34:56.477Z,74.07
2022-12-03T12:38:12.525Z,88.90
2022-12-03T12:41:14.633Z,73.57
2022-12-03T12:44:18.263Z,77.43
2022-12-03T12:47:20.399Z,89.80
2022-12-03T12:50:22.304Z,81.07
2022-12-03T12:53:27.513Z,81.87
2022-12-03T12:56:31.421Z,84.87
2022-12-03T12:59:33.550Z,82.43
2022-12-03T13:03:02.307Z,80.23
2022-12-03T13:06:04.716Z,80.77
2022-12-03T13:09:17.882Z,88.23
2022-12-03T13:12:22.292Z,92.50
2022-12-03T13:15:48.759Z,83.63
2022-12-03T13:18:55.560Z,95.80
2022-12-03T13:22:02.714Z,92.53
2022-12-03T13:25:58.296Z,91.00
2022-12-03T13:28:57.711Z,94.80
2022-12-03T13:32:05.623Z,89.27
2022-12-03T13:35:16.173Z,86.37
2022-12-03T13:38:20.296Z,93.00
2022-12-03T13:41:40.671Z,87.50
2022-12-03T13:44:48.109Z,87.10
2022-12-03T13:47:55.020Z,89.83
2022-12-03T13:51:12.775Z,91.90
2022-12-03T13:54:21.325Z,98.63
2022-12-03T13:57:24.772Z,95.23
2022-12-03T14:00:26.652Z,85.50
2022-12-03T14:03:28.782Z,96.97
2022-12-03T14:06:30.859Z,95.93
2022-12-03T14:09:32.951Z,89.10
2022-12-03T14:12:35.005Z,89.30
2022-12-03T14:15:37.185Z,93.03
2022-12-03T14:18:39.020Z,96.13
2022-12-03T14:21:41.605Z,101.50
2022-12-03T14:24:45.983Z,101.27
2022-12-03T14:27:50.463Z,101.00
2022-12-03T14:30:52.261Z,88.90
2022-12-03T14:33:56.606Z,96.67
2022-12-03T14:37:00.643Z,105.27
2022-12-03T14:40:03.818Z,109.13
2022-12-03T14:43:08.738Z,96.10
2022-12-03T14:46:10.898Z,103.43
2022-12-03T14:49:12.846Z,100.00
2022-12-03T14:52:15.076Z,89.47
2022-12-03T14:55:17.413Z,87.10
2022-12-03T14:58:19.683Z,102.37
2022-12-03T15:01:21.656Z,100.73
2022-12-03T15:04:23.836Z,99.93
2022-12-03T15:07:25.746Z,101.93
2022-12-03T15:10:27.875Z,94.53
2022-12-03T15:13:29.690Z,91.83
2022-12-03T15:16:31.843Z,94.10
2022-12-03T15:19:33.805Z,109.93
2022-12-03T15:22:35.895Z,105.10
2022-12-03T15:25:37.738Z,96.90
2022-12-03T15:28:42.061Z,97.77
2022-12-03T15:31:47.326Z,95.57
2022-12-03T15:34:51.290Z,96.13
2022-12-03T15:37:53.129Z,106.27
2022-12-03T15:40:55.534Z,94.77
2022-12-03T15:43:59.629Z,103.90
2022-12-03T15:47:01.781Z,98.37
2022-12-03T15:50:04.220Z,99.47
2022-12-03T15:53:06.361Z,110.90
2022-12-03T15:56:08.483Z,92.20
2022-12-03T15:59:10.702Z,98.13
2022-12-03T16:02:12.620Z,100.87
2022-12-03T16:05:15.027Z,102.73
2022-12-03T16:08:16.979Z,107.27
2022-12-03T16:11:19.085Z,94.30
2022-12-03T16:14:20.861Z,90.40
2022-12-03T16:17:22.951Z,96.03
2022-12-03T16:20:24.803Z,102.47
2022-12-03T16:23:26.929Z,98.70
2022-12-03T16:26:28.919Z,108.97
2022-12-03T16:29:34.008Z,98.17
2022-12-03T16:32:35.927Z,106.23
2022-12-03T16:35:38.087Z,94.77
2022-12-03T16:38:40.064Z,102.07
2022-12-03T16:41:42.465Z,107.07
2022-12-03T16:44:59.566Z,97.93
2022-12-03T16:48:01.959Z,96.83
2022-12-03T16:51:04.076Z,99.10
2022-12-03T16:54:06.377Z,103.50
2022-12-03T16:57:08.232Z,101.00
2022-12-03T17:00:10.866Z,94.57
2022-12-03T17:03:12.804Z,104.73
2022-12-03T17:06:15.328Z,98.43
2022-12-03T17:09:17.544Z,99.57
2022-12-03T17:12:19.614Z,100.97
2022-12-03T17:15:21.514Z,98.47
2022-12-03T17:18:24.696Z,98.87
2022-12-03T17:21:29.737Z,93.53
2022-12-03T17:24:34.171Z,94.93
2022-12-03T17:27:40.841Z,107.50
2022-12-03T17:30:46.873Z,95.20
2022-12-03T17:33:48.769Z,100.33
2022-12-03T17:36:50.869Z,97.03
2022-12-03T17:39:53.011Z,101.07
2022-12-03T17:42:55.295Z,100.80
2022-12-03T17:45:57.238Z,105.03
2022-12-03T17:48:59.519Z,95.30
2022-12-03T17:52:01.481Z,102.43
2022-12-03T17:55:14.484Z,102.77
2022-12-03T17:58:23.318Z,111.10
2022-12-03T18:01:26.006Z,105.87
2022-12-03T18:04:28.045Z,101.43
2022-12-03T18:07:30.283Z,98.93
2022-12-03T18:10:32.137Z,94.07
2022-12-03T18:13:34.651Z,98.53
2022-12-03T18:16:36.575Z,102.63
2022-12-03T18:19:40.820Z,104.17
2022-12-03T18:22:42.728Z,101.63
2022-12-03T18:25:44.822Z,115.20
2022-12-03T18:28:46.772Z,114.50
2022-12-03T18:31:48.972Z,104.23
2022-12-03T18:34:50.935Z,103.03
2022-12-03T18:37:54.108Z,114.90
2022-12-03T18:40:57.650Z,106.77
2022-12-03T18:44:02.416Z,103.70
2022-12-03T18:47:10.985Z,103.37
2022-12-03T18:50:15.800Z,102.27
2022-12-03T18:53:18.875Z,101.67
2022-12-03T18:56:20.954Z,103.17
2022-12-03T18:59:22.817Z,110.13
2022-12-03T19:02:54.165Z,101.17
2022-12-03T19:05:46.870Z,107.63
2022-12-03T19:08:53.987Z,112.47
2022-12-03T19:11:56.153Z,103.87
2022-12-03T19:14:58.320Z,106.57
2022-12-03T19:18:00.118Z,104.40
2022-12-03T19:21:07.868Z,104.70
2022-12-03T19:24:27.527Z,103.60
2022-12-03T19:27:30.989Z,102.97
2022-12-03T19:30:32.818Z,106.10
2022-12-03T19:33:35.607Z,105.57
2022-12-03T19:36:37.384Z,97.90
2022-12-03T19:39:39.501Z,104.67
2022-12-03T19:42:41.733Z,96.97
2022-12-03T19:45:44.147Z,115.23
2022-12-03T19:48:46.064Z,97.57
2022-12-03T19:51:48.269Z,101.47
2022-12-03T19:54:50.216Z,112.10
2022-12-03T19:57:52.311Z,98.90
2022-12-03T20:00:54.422Z,95.70
2022-12-03T20:03:58.850Z,97.20
2022-12-03T20:07:00.754Z,99.23
2022-12-03T20:10:06.561Z,96.10
2022-12-03T20:13:08.470Z,104.57
2022-12-03T20:16:12.985Z,105.30
2022-12-03T20:19:18.210Z,101.70
2022-12-03T20:22:21.555Z,97.43
2022-12-03T20:25:23.367Z,93.40
2022-12-03T20:28:27.746Z,91.63
2022-12-03T20:31:31.604Z,103.20
2022-12-03T20:34:35.946Z,108.50
2022-12-03T20:37:37.932Z,108.10
2022-12-03T20:40:40.052Z,96.13
2022-12-03T20:43:42.542Z,115.60
2022-12-03T20:46:47.477Z,120.60
2022-12-03T20:49:49.265Z,111.43
2022-12-03T20:53:16.325Z,121.80
2022-12-03T20:56:20.265Z,103.40
2022-12-03T20:59:23.565Z,104.10
2022-12-03T21:02:25.494Z,103.30
2022-12-03T21:05:27.889Z,93.47
2022-12-03T21:08:40.985Z,100.10
2022-12-03T21:11:43.894Z,99.97
2022-12-03T21:14:45.792Z,106.40
2022-12-03T21:17:47.967Z,96.97
2022-12-03T21:20:49.850Z,98.33
2022-12-03T21:23:52.707Z,86.30
2022-12-03T21:26:54.880Z,100.00
2022-12-03T21:29:57.284Z,99.07
2022-12-03T21:33:00.902Z,91.87
2022-12-03T21:36:04.638Z,103.70
2022-12-03T21:39:07.918Z,102.07
2022-12-03T21:42:18.698Z,95.97
2022-12-03T21:45:31.783Z,101.10
2022-12-03T21:48:34.513Z,88.83
2022-12-03T21:51:36.555Z,100.97
2022-12-03T21:54:38.664Z,98.13
2022-12-03T21:57:40.892Z,103.83
2022-12-03T22:00:42.960Z,96.67
2022-12-03T22:03:47.131Z,94.13
2022-12-03T22:06:49.237Z,99.47
2022-12-03T22:09:52.318Z,98.87
2022-12-03T22:12:54.656Z,97.47
2022-12-03T22:15:56.477Z,94.90
2022-12-03T22:18:58.611Z,98.00
2022-12-03T22:22:00.478Z,90.70
2022-12-03T22:25:02.800Z,93.93
2022-12-03T22:28:04.730Z,100.23
2022-12-03T22:31:07.930Z,98.23
2022-12-03T22:34:09.873Z,103.67
2022-12-03T22:37:11.948Z,97.47
2022-12-03T22:40:13.937Z,101.63
2022-12-03T22:43:17.158Z,95.97
2022-12-03T22:46:19.128Z,97.00
2022-12-03T22:49:21.496Z,102.37
2022-12-03T22:52:24.380Z,98.60
2022-12-03T22:55:26.442Z,99.80
2022-12-03T22:58:28.657Z,102.07
2022-12-03T23:01:33.405Z,109.37
2022-12-03T23:04:35.168Z,105.53
2022-12-03T23:07:37.363Z,96.80
2022-12-03T23:10:41.861Z,98.90
2022-12-03T23:13:43.970Z,94.77
2022-12-03T23:16:45.806Z,92.43
2022-12-03T23:19:50.141Z,112.17
2022-12-03T23:22:52.199Z,103.50
2022-12-03T23:26:07.146Z,93.20
2022-12-03T23:29:09.089Z,103.60
2022-12-03T23:32:11.202Z,95.53
2022-12-03T23:35:13.029Z,94.83
2022-12-03T23:38:15.170Z,106.60
2022-12-03T23:41:19.652Z,94.70
2022-12-03T23:44:21.762Z,95.27
2022-12-03T23:47:24.114Z,97.20
2022-12-03T23:50:27.044Z,93.60
2022-12-03T23:53:29.318Z,94.13
2022-12-03T23:56:31.633Z,96.20
2022-12-03T23:59:33.447Z,95.57
